createdAt,value
2023-01-23T00:03:25.969Z,29.40
2023-01-23T00:07:27.605Z,28.60
2023-01-23T00:11:30.437Z,31.45
2023-01-23T00:15:33.286Z,29.35
2023-01-23T00:19:35.288Z,30.83
2023-01-23T00:23:37.663Z,29.85
2023-01-23T00:27:39.693Z,29.17
2023-01-23T00:31:41.751Z,28.33
2023-01-23T00:35:43.867Z,28.38
2023-01-23T00:39:45.977Z,27.67
2023-01-23T00:43:48.535Z,27.48
2023-01-23T00:47:53.793Z,28.60
2023-01-23T00:51:56.729Z,29.05
2023-01-23T00:55:58.774Z,27.23
2023-01-23T01:00:01.367Z,29.15
2023-01-23T01:04:04.585Z,30.92
2023-01-23T01:08:06.814Z,31.33
2023-01-23T01:12:08.748Z,29.33
2023-01-23T01:16:13.044Z,31.63
2023-01-23T01:20:15.860Z,30.13
2023-01-23T01:24:17.899Z,27.83
2023-01-23T01:28:19.946Z,28.65
2023-01-23T01:32:23.268Z,30.65
2023-01-23T01:36:27.002Z,29.75
2023-01-23T01:40:33.347Z,29.05
2023-01-23T01:45:29.436Z,29.05
2023-01-23T01:49:33.448Z,30.08
2023-01-23T01:53:37.755Z,31.23
2023-01-23T01:57:44.225Z,31.35
2023-01-23T02:01:50.497Z,30.02
2023-01-23T02:05:52.758Z,29.75
2023-01-23T02:09:55.513Z,28.58
2023-01-23T02:13:57.896Z,29.52
2023-01-23T02:17:59.860Z,29.70
2023-01-23T02:22:32.181Z,29.98
2023-01-23T02:26:40.339Z,29.83
2023-01-23T02:30:47.082Z,31.45
2023-01-23T02:34:49.647Z,32.00
2023-01-23T02:39:10.530Z,30.00
2023-01-23T02:43:19.025Z,29.65
2023-01-23T02:47:29.509Z,28.10
2023-01-23T02:51:32.559Z,27.58
2023-01-23T02:55:34.610Z,30.67
2023-01-23T02:59:55.167Z,29.60
2023-01-23T03:04:03.833Z,31.67
2023-01-23T03:08:07.324Z,29.15
2023-01-23T03:12:09.450Z,34.33
2023-01-23T03:16:13.209Z,32.50
2023-01-23T03:20:20.040Z,34.83
2023-01-23T03:24:22.510Z,31.08
2023-01-23T03:28:44.301Z,27.83
2023-01-23T03:32:46.844Z,33.42
2023-01-23T03:36:48.936Z,30.33
2023-01-23T03:41:09.357Z,34.13
2023-01-23T03:45:11.802Z,31.58
2023-01-23T03:49:14.843Z,42.15
2023-01-23T03:53:17.359Z,42.13
2023-01-23T03:57:19.464Z,33.85
2023-01-23T04:01:37.073Z,31.83
2023-01-23T04:05:39.947Z,30.38
2023-01-23T04:09:42.113Z,31.88
2023-01-23T04:13:44.352Z,31.85
2023-01-23T04:17:46.633Z,32.83
2023-01-23T04:21:49.788Z,31.33
2023-01-23T04:25:52.338Z,32.47
2023-01-23T04:29:54.758Z,34.97
2023-01-23T04:33:56.950Z,33.85
2023-01-23T04:37:59.387Z,33.72
2023-01-23T04:42:01.552Z,35.25
2023-01-23T04:46:19.133Z,33.07
2023-01-23T04:50:33.391Z,35.55
2023-01-23T04:54:35.529Z,36.20
2023-01-23T04:58:37.689Z,35.65
2023-01-23T05:02:40.776Z,38.90
2023-01-23T05:06:43.531Z,34.97
2023-01-23T05:10:46.884Z,37.13
2023-01-23T05:14:54.175Z,32.88
2023-01-23T05:18:56.391Z,33.65
2023-01-23T05:22:58.745Z,35.80
2023-01-23T05:27:08.617Z,35.58
2023-01-23T05:31:14.198Z,34.10
2023-01-23T05:35:24.802Z,37.10
2023-01-23T05:39:27.831Z,32.08
2023-01-23T05:43:30.839Z,35.13
2023-01-23T05:47:53.140Z,34.80
2023-01-23T05:51:55.657Z,33.95
2023-01-23T05:56:00.108Z,35.38
2023-01-23T06:00:05.233Z,34.35
2023-01-23T06:04:26.114Z,34.88
2023-01-23T06:08:41.506Z,35.45
2023-01-23T06:12:43.453Z,36.17
2023-01-23T06:16:45.377Z,33.58
2023-01-23T06:20:47.865Z,35.72
2023-01-23T06:24:50.081Z,33.15
2023-01-23T06:28:52.212Z,35.35
2023-01-23T06:32:54.234Z,34.83
2023-01-23T06:37:03.280Z,33.67
2023-01-23T06:41:05.749Z,36.40
2023-01-23T06:45:11.921Z,35.42
2023-01-23T06:49:14.302Z,37.00
2023-01-23T06:53:17.386Z,35.47
2023-01-23T06:57:20.644Z,36.70
2023-01-23T07:01:24.501Z,36.10
2023-01-23T07:05:46.487Z,34.42
2023-01-23T07:09:48.490Z,36.30
2023-01-23T07:14:08.319Z,34.90
2023-01-23T07:18:12.091Z,32.28
2023-01-23T07:22:17.834Z,36.20
2023-01-23T07:26:19.923Z,34.33
2023-01-23T07:30:22.378Z,35.97
2023-01-23T07:34:24.480Z,32.47
2023-01-23T07:38:26.681Z,35.70
2023-01-23T07:42:28.729Z,34.72
2023-01-23T07:46:30.735Z,35.70
2023-01-23T07:50:33.072Z,36.20
2023-01-23T07:54:35.236Z,34.90
2023-01-23T07:58:37.251Z,33.75
2023-01-23T08:02:39.621Z,35.60
2023-01-23T08:06:41.890Z,39.05
2023-01-23T08:10:43.887Z,37.60
2023-01-23T08:14:47.589Z,35.15
2023-01-23T08:18:49.917Z,33.75
2023-01-23T08:22:51.893Z,33.08
2023-01-23T08:26:54.117Z,34.53
2023-01-23T08:31:01.269Z,33.40
2023-01-23T08:35:04.978Z,33.42
2023-01-23T08:39:07.227Z,35.53
2023-01-23T08:43:10.695Z,36.45
2023-01-23T08:47:12.985Z,45.00
2023-01-23T08:51:15.444Z,33.70
2023-01-23T08:55:17.899Z,31.50
2023-01-23T08:59:20.154Z,36.35
2023-01-23T09:03:22.359Z,36.63
2023-01-23T09:07:24.393Z,35.05
2023-01-23T09:11:26.327Z,33.47
2023-01-23T09:15:28.413Z,32.53
2023-01-23T09:19:32.277Z,32.95
2023-01-23T09:23:34.968Z,31.30
2023-01-23T09:27:37.130Z,31.65
2023-01-23T09:31:39.158Z,28.35
2023-01-23T09:35:41.235Z,33.03
2023-01-23T09:39:44.297Z,31.17
2023-01-23T09:44:10.261Z,30.75
2023-01-23T09:48:27.676Z,31.98
2023-01-23T09:52:35.991Z,32.35
2023-01-23T10:00:46.465Z,35.35
2023-01-23T10:04:51.564Z,29.48
2023-01-23T10:09:17.842Z,30.73
2023-01-23T10:13:35.316Z,30.08
2023-01-23T10:17:46.166Z,30.35
2023-01-23T10:22:04.841Z,29.70
2023-01-23T10:30:35.108Z,29.13
2023-01-23T10:34:53.698Z,29.58
2023-01-23T10:39:02.794Z,29.90
2023-01-23T10:43:19.955Z,29.88
2023-01-23T10:47:34.508Z,32.13
2023-01-23T10:51:37.051Z,35.13
2023-01-23T10:55:45.433Z,33.05
2023-01-23T11:03:52.535Z,32.80
2023-01-23T11:07:55.215Z,33.55
2023-01-23T11:12:05.717Z,32.03
2023-01-23T11:16:14.739Z,33.28
2023-01-23T11:20:29.332Z,32.03
2023-01-23T11:24:40.142Z,34.72
2023-01-23T11:28:49.950Z,32.47
2023-01-23T11:32:57.561Z,34.80
2023-01-23T11:37:11.379Z,36.25
2023-01-23T11:41:14.315Z,37.88
2023-01-23T11:45:38.907Z,37.63
2023-01-23T11:50:14.375Z,44.63
2023-01-23T11:54:40.554Z,38.78
2023-01-23T11:59:14.538Z,41.75
2023-01-23T12:03:45.079Z,42.72
2023-01-23T12:08:11.891Z,39.45
2023-01-23T12:12:40.842Z,43.10
2023-01-23T12:17:13.778Z,48.28
2023-01-23T12:21:20.783Z,42.38
2023-01-23T12:25:33.842Z,44.47
2023-01-23T12:29:44.571Z,43.90
2023-01-23T12:33:59.428Z,41.80
2023-01-23T12:38:16.475Z,45.25
2023-01-23T12:42:25.939Z,45.85
2023-01-23T12:46:36.574Z,44.40
2023-01-23T12:50:53.638Z,71.45
2023-01-23T12:55:14.496Z,46.13
2023-01-23T12:59:49.196Z,48.33
2023-01-23T13:04:15.196Z,40.42
2023-01-23T13:08:57.960Z,39.47
2023-01-23T13:13:02.353Z,39.80
2023-01-23T13:17:43.140Z,58.65
2023-01-23T13:22:18.920Z,47.72
2023-01-23T13:26:29.347Z,49.35
2023-01-23T13:30:36.221Z,40.47
2023-01-23T13:34:38.228Z,39.45
2023-01-23T13:38:42.112Z,41.33
2023-01-23T13:42:44.506Z,47.30
2023-01-23T14:22:55.034Z,42.17
2023-01-23T14:27:07.475Z,40.80
2023-01-23T14:31:22.573Z,41.28
2023-01-23T14:35:30.068Z,47.55
2023-01-23T14:39:34.892Z,41.80
2023-01-23T14:43:37.653Z,50.13
2023-01-23T14:47:48.963Z,50.90
2023-01-23T14:51:57.892Z,41.00
2023-01-23T14:56:01.889Z,42.53
2023-01-23T15:00:05.002Z,45.25
2023-01-23T15:04:20.967Z,37.40
2023-01-23T15:08:32.201Z,38.03
2023-01-23T15:12:34.229Z,38.55
2023-01-23T15:16:38.221Z,53.63
2023-01-23T15:20:41.710Z,41.47
2023-01-23T15:24:44.352Z,45.80
2023-01-23T15:29:00.287Z,42.63
2023-01-23T15:33:07.441Z,40.00
2023-01-23T15:37:12.579Z,40.40
2023-01-23T15:41:17.261Z,42.58
2023-01-23T15:45:19.883Z,38.95
2023-01-23T15:49:26.082Z,41.78
2023-01-23T15:53:29.031Z,44.42
2023-01-23T15:57:31.072Z,42.05
2023-01-23T16:01:33.068Z,45.92
2023-01-23T16:05:36.969Z,39.58
2023-01-23T16:09:40.507Z,48.53
2023-01-23T16:13:42.343Z,50.90
2023-01-23T16:17:45.156Z,49.10
2023-01-23T16:22:03.097Z,50.63
2023-01-23T16:26:06.708Z,55.83
2023-01-23T16:30:16.551Z,44.38
2023-01-23T16:34:18.598Z,43.22
2023-01-23T16:38:27.460Z,44.88
2023-01-23T16:42:30.495Z,49.80
2023-01-23T16:46:32.651Z,50.13
2023-01-23T16:50:45.107Z,45.30
2023-01-23T16:54:47.320Z,50.72
2023-01-23T16:58:50.123Z,45.72
2023-01-23T17:02:55.901Z,49.28
2023-01-23T17:06:57.835Z,47.80
2023-01-23T17:11:04.252Z,62.10
2023-01-23T17:15:06.952Z,51.30
2023-01-23T17:19:24.275Z,100.03
2023-01-23T17:23:26.304Z,59.47
2023-01-23T17:27:28.318Z,47.63
2023-01-23T17:31:32.582Z,48.90
2023-01-23T17:35:37.135Z,46.72
2023-01-23T17:39:38.655Z,43.17
2023-01-23T17:43:43.349Z,47.95
2023-01-23T17:47:48.596Z,45.38
2023-01-23T17:51:50.855Z,50.78
2023-01-23T17:55:53.641Z,47.30
2023-01-23T17:59:56.614Z,49.33
2023-01-23T18:03:58.625Z,51.20
2023-01-23T18:08:00.800Z,43.22
2023-01-23T18:12:04.893Z,49.67
2023-01-23T18:16:15.697Z,54.30
2023-01-23T18:20:20.853Z,50.15
2023-01-23T18:24:33.134Z,54.58
2023-01-23T18:28:51.826Z,50.97
2023-01-23T18:37:20.229Z,49.90
2023-01-23T18:41:27.072Z,50.30
2023-01-23T18:45:29.718Z,52.13
2023-01-23T18:49:33.241Z,51.60
2023-01-23T18:54:24.713Z,51.88
2023-01-23T18:58:35.845Z,53.75
2023-01-23T19:02:45.082Z,55.10
2023-01-23T19:06:47.671Z,55.20
2023-01-23T19:10:50.374Z,56.85
2023-01-23T19:15:05.029Z,53.85
2023-01-23T19:19:20.584Z,52.70
2023-01-23T19:23:45.953Z,48.83
2023-01-23T19:27:56.085Z,48.80
2023-01-23T19:32:05.165Z,49.63
2023-01-23T19:36:11.322Z,49.75
2023-01-23T19:40:15.747Z,48.10
2023-01-23T19:44:19.939Z,49.47
2023-01-23T19:48:21.996Z,52.15
2023-01-23T19:52:24.103Z,49.83
2023-01-23T19:56:27.010Z,50.53
2023-01-23T20:00:31.612Z,52.05
2023-01-23T20:04:34.318Z,54.03
2023-01-23T20:08:36.601Z,58.55
2023-01-23T20:12:43.893Z,54.25
2023-01-23T20:16:46.265Z,56.85
2023-01-23T20:20:48.405Z,58.17
2023-01-23T20:24:50.335Z,59.85
2023-01-23T20:28:55.773Z,60.85
2023-01-23T20:37:04.781Z,62.63
2023-01-23T20:41:12.211Z,67.82
2023-01-23T20:45:14.715Z,67.83
2023-01-23T20:49:16.749Z,64.35
2023-01-23T20:53:30.766Z,69.32
2023-01-23T20:57:51.251Z,63.90
2023-01-23T21:02:12.069Z,62.03
2023-01-23T21:06:15.304Z,65.25
2023-01-23T21:10:17.435Z,61.53
2023-01-23T21:14:20.912Z,63.97
2023-01-23T21:18:22.918Z,61.20
2023-01-23T21:22:25.104Z,60.03
2023-01-23T21:26:28.606Z,61.53
2023-01-23T21:30:30.927Z,61.00
2023-01-23T21:34:33.310Z,60.70
2023-01-23T21:38:35.742Z,57.58
2023-01-23T21:42:38.135Z,57.80
2023-01-23T21:46:40.963Z,62.70
2023-01-23T21:50:43.214Z,62.63
2023-01-23T21:54:45.324Z,58.05
2023-01-23T21:58:48.471Z,59.60
2023-01-23T22:02:50.697Z,55.35
2023-01-23T22:06:55.560Z,55.42
2023-01-23T22:10:57.766Z,55.60
2023-01-23T22:15:00.166Z,52.58
2023-01-23T22:19:02.337Z,59.03
2023-01-23T22:23:04.336Z,54.03
2023-01-23T22:27:06.385Z,57.42
2023-01-23T22:31:14.317Z,55.33
2023-01-23T22:35:16.657Z,56.60
2023-01-23T22:39:19.979Z,61.78
2023-01-23T22:43:22.040Z,54.85
2023-01-23T22:47:24.149Z,55.45
2023-01-23T22:51:27.619Z,59.28
2023-01-23T22:55:29.659Z,54.97
2023-01-23T22:59:31.650Z,56.00
2023-01-23T23:03:34.704Z,54.42
2023-01-23T23:07:36.957Z,55.75
2023-01-23T23:11:39.529Z,56.72
2023-01-23T23:15:41.431Z,56.50
2023-01-23T23:19:43.450Z,54.83
2023-01-23T23:23:46.255Z,53.92
2023-01-23T23:27:47.911Z,54.75
2023-01-23T23:31:52.966Z,53.72
2023-01-23T23:35:55.352Z,52.83
2023-01-23T23:39:57.123Z,54.85
2023-01-23T23:43:59.183Z,52.00
2023-01-23T23:48:02.302Z,51.85
2023-01-23T23:52:04.251Z,53.20
2023-01-23T23:56:07.587Z,54.38
